createdAt,value
2023-02-05T00:02:10.785Z,26.02
2023-02-05T00:04:39.037Z,22.23
2023-02-05T00:07:06.791Z,20.30
2023-02-05T00:09:34.424Z,24.02
2023-02-05T00:12:01.938Z,21.20
2023-02-05T00:14:29.680Z,21.00
2023-02-05T00:16:57.307Z,16.30
2023-02-05T00:19:25.032Z,19.77
2023-02-05T00:21:52.617Z,15.85
2023-02-05T00:24:22.659Z,20.75
2023-02-05T00:26:50.273Z,17.00
2023-02-05T00:29:17.929Z,14.05
2023-02-05T00:31:49.537Z,19.10
2023-02-05T00:34:17.504Z,24.13
2023-02-05T00:36:45.202Z,20.42
2023-02-05T00:39:14.130Z,29.27
2023-02-05T00:41:41.870Z,25.08
2023-02-05T00:44:09.505Z,22.80
2023-02-05T00:46:37.043Z,24.35
2023-02-05T00:49:04.686Z,25.02
2023-02-05T00:51:32.353Z,18.45
2023-02-05T00:53:59.921Z,19.83
2023-02-05T00:56:27.550Z,24.05
2023-02-05T00:58:57.467Z,19.48
2023-02-05T01:01:25.779Z,18.55
2023-02-05T01:03:54.852Z,21.17
2023-02-05T01:06:22.439Z,24.10
2023-02-05T01:08:50.070Z,24.33
2023-02-05T01:11:17.757Z,21.40
2023-02-05T01:13:45.288Z,19.90
2023-02-05T01:16:12.948Z,23.15
2023-02-05T01:18:40.552Z,25.15
2023-02-05T01:21:08.630Z,23.30
2023-02-05T01:23:36.331Z,25.40
2023-02-05T01:26:04.381Z,28.98
2023-02-05T01:28:32.001Z,22.05
2023-02-05T01:30:59.799Z,25.70
2023-02-05T01:33:27.529Z,19.80
2023-02-05T01:35:56.309Z,18.42
2023-02-05T01:38:23.883Z,18.95
2023-02-05T01:40:51.519Z,16.23
2023-02-05T01:43:19.370Z,19.98
2023-02-05T01:46:04.441Z,18.80
2023-02-05T01:48:38.556Z,27.40
2023-02-05T01:51:08.667Z,22.02
2023-02-05T01:53:37.267Z,21.40
2023-02-05T01:56:07.071Z,26.05
2023-02-05T01:58:38.342Z,21.70
2023-02-05T02:01:06.474Z,24.75
2023-02-05T02:03:33.996Z,22.90
2023-02-05T02:06:02.468Z,21.27
2023-02-05T02:08:31.512Z,25.95
2023-02-05T02:10:59.319Z,24.50
2023-02-05T02:13:28.172Z,27.50
2023-02-05T02:15:56.537Z,23.95
2023-02-05T02:18:28.193Z,20.70
2023-02-05T02:21:05.352Z,22.55
2023-02-05T02:23:51.851Z,19.83
2023-02-05T02:26:19.401Z,19.80
2023-02-05T02:28:52.211Z,16.73
2023-02-05T02:31:23.226Z,16.90
2023-02-05T02:34:01.146Z,17.92
2023-02-05T02:36:35.248Z,18.92
2023-02-05T02:39:06.081Z,23.20
2023-02-05T02:41:52.620Z,20.42
2023-02-05T02:44:30.070Z,20.33
2023-02-05T02:47:00.220Z,24.58
2023-02-05T02:49:31.016Z,18.53
2023-02-05T02:52:02.401Z,18.35
2023-02-05T02:54:30.134Z,21.13
2023-02-05T02:56:58.539Z,21.58
2023-02-05T02:59:29.620Z,16.45
2023-02-05T03:04:26.742Z,19.10
2023-02-05T03:06:55.314Z,20.73
2023-02-05T03:09:27.354Z,20.90
2023-02-05T03:11:55.124Z,20.48
2023-02-05T03:14:25.087Z,24.17
2023-02-05T03:16:53.983Z,22.00
2023-02-05T03:19:21.620Z,20.02
2023-02-05T03:21:51.854Z,15.18
2023-02-05T03:24:19.420Z,23.85
2023-02-05T03:26:46.934Z,23.48
2023-02-05T03:29:27.255Z,26.67
2023-02-05T03:31:56.924Z,23.08
2023-02-05T03:34:31.431Z,25.80
2023-02-05T03:37:04.097Z,27.15
2023-02-05T03:39:46.403Z,27.33
2023-02-05T03:42:23.733Z,25.02
2023-02-05T03:45:10.262Z,25.58
2023-02-05T03:47:55.744Z,27.40
2023-02-05T03:50:23.838Z,26.15
2023-02-05T03:52:55.854Z,34.78
2023-02-05T03:55:27.051Z,37.65
2023-02-05T03:58:01.953Z,27.05
2023-02-05T04:00:30.565Z,32.72
2023-02-05T04:02:59.267Z,28.40
2023-02-05T04:05:31.187Z,36.53
2023-02-05T04:08:01.855Z,30.88
2023-02-05T04:10:34.930Z,23.45
2023-02-05T04:13:03.999Z,25.60
2023-02-05T04:15:33.528Z,29.50
2023-02-05T04:18:02.910Z,20.02
2023-02-05T04:20:31.615Z,22.42
2023-02-05T04:23:00.433Z,18.73
2023-02-05T04:25:30.397Z,23.90
2023-02-05T04:28:01.580Z,19.00
2023-02-05T04:30:30.356Z,21.25
2023-02-05T04:32:57.918Z,19.20
2023-02-05T04:35:25.538Z,22.58
2023-02-05T04:37:53.217Z,21.80
2023-02-05T04:40:20.840Z,24.40
2023-02-05T04:42:48.439Z,21.85
2023-02-05T04:45:16.049Z,25.33
2023-02-05T04:47:43.771Z,25.08
2023-02-05T04:50:11.455Z,28.83
2023-02-05T04:52:38.986Z,27.38
2023-02-05T04:55:06.770Z,24.40
2023-02-05T04:57:34.432Z,26.42
2023-02-05T05:00:02.174Z,24.42
2023-02-05T05:02:29.950Z,24.13
2023-02-05T05:04:57.505Z,22.65
2023-02-05T05:07:25.163Z,25.58
2023-02-05T05:09:52.705Z,27.67
2023-02-05T05:12:20.270Z,20.88
2023-02-05T05:14:47.829Z,25.35
2023-02-05T05:17:15.700Z,22.60
2023-02-05T05:19:43.364Z,23.58
2023-02-05T05:22:11.051Z,24.10
2023-02-05T05:24:38.722Z,26.83
2023-02-05T05:27:06.268Z,20.45
2023-02-05T05:29:33.931Z,24.67
2023-02-05T05:32:01.481Z,24.50
2023-02-05T05:34:29.131Z,25.63
2023-02-05T05:36:56.696Z,27.80
2023-02-05T05:39:43.054Z,27.75
2023-02-05T05:42:30.867Z,23.63
2023-02-05T05:44:58.485Z,28.30
2023-02-05T05:47:26.252Z,30.70
2023-02-05T05:49:53.867Z,23.88
2023-02-05T05:52:21.399Z,28.00
2023-02-05T05:54:49.014Z,27.08
2023-02-05T05:57:16.632Z,28.08
2023-02-05T05:59:44.285Z,31.10
2023-02-05T06:02:11.960Z,28.08
2023-02-05T06:04:39.837Z,32.72
2023-02-05T06:07:07.369Z,33.10
2023-02-05T06:09:35.010Z,24.15
2023-02-05T06:12:02.550Z,27.58
2023-02-05T06:14:30.803Z,23.30
2023-02-05T06:16:58.441Z,27.85
2023-02-05T06:19:26.048Z,30.02
2023-02-05T06:21:53.651Z,24.45
2023-02-05T06:24:21.214Z,24.05
2023-02-05T06:26:49.016Z,27.25
2023-02-05T06:29:16.611Z,24.48
2023-02-05T06:31:44.419Z,24.23
2023-02-05T06:34:12.159Z,26.88
2023-02-05T06:36:39.731Z,22.63
2023-02-05T06:39:07.297Z,26.58
2023-02-05T06:41:35.002Z,26.83
2023-02-05T06:44:03.919Z,23.02
2023-02-05T06:46:31.511Z,23.73
2023-02-05T06:48:59.057Z,25.17
2023-02-05T06:51:26.712Z,23.48
2023-02-05T06:53:57.115Z,23.27
2023-02-05T06:56:24.932Z,22.35
2023-02-05T06:58:52.482Z,23.48
2023-02-05T07:01:20.140Z,24.95
2023-02-05T07:03:48.553Z,26.80
2023-02-05T07:06:16.224Z,24.10
2023-02-05T07:08:44.398Z,22.65
2023-02-05T07:11:11.979Z,21.63
2023-02-05T07:13:39.483Z,20.13
2023-02-05T07:16:07.423Z,21.00
2023-02-05T07:18:35.554Z,19.85
2023-02-05T07:21:07.347Z,22.50
2023-02-05T07:23:35.333Z,17.75
2023-02-05T07:26:13.538Z,19.23
2023-02-05T07:28:41.392Z,18.65
2023-02-05T07:31:15.457Z,19.90
2023-02-05T07:33:46.963Z,23.92
2023-02-05T07:36:18.708Z,19.13
2023-02-05T07:38:47.175Z,18.55
2023-02-05T07:41:15.798Z,18.17
2023-02-05T07:43:43.498Z,22.85
2023-02-05T07:46:12.366Z,19.77
2023-02-05T07:48:40.188Z,22.50
2023-02-05T07:51:07.842Z,20.50
2023-02-05T07:53:35.520Z,19.83
2023-02-05T07:56:04.049Z,23.45
2023-02-05T07:58:31.756Z,19.95
2023-02-05T08:01:04.864Z,20.48
2023-02-05T08:03:40.584Z,20.42
2023-02-05T08:06:11.605Z,20.58
2023-02-05T08:08:39.728Z,23.13
2023-02-05T08:11:09.409Z,19.33
2023-02-05T08:13:48.681Z,21.40
2023-02-05T08:16:19.085Z,23.05
2023-02-05T08:18:51.531Z,25.88
2023-02-05T08:21:19.645Z,24.40
2023-02-05T08:26:40.345Z,19.77
2023-02-05T08:29:09.917Z,19.52
2023-02-05T08:37:37.465Z,21.23
2023-02-05T08:43:05.166Z,16.48
2023-02-05T08:45:37.246Z,21.70
2023-02-05T08:48:09.481Z,23.52
2023-02-05T08:50:47.270Z,20.02
2023-02-05T08:53:22.517Z,37.88
2023-02-05T08:56:03.223Z,23.50
2023-02-05T09:01:22.503Z,19.98
2023-02-05T09:03:53.264Z,17.60
2023-02-05T09:09:02.673Z,20.13
2023-02-05T09:14:26.739Z,18.38
2023-02-05T09:19:49.325Z,16.85
2023-02-05T09:22:18.364Z,20.25
2023-02-05T09:24:49.652Z,14.88
2023-02-05T09:27:23.340Z,18.42
2023-02-05T09:29:51.575Z,14.23
2023-02-05T09:32:21.880Z,14.98
2023-02-05T09:34:53.170Z,17.02
2023-02-05T09:37:26.811Z,14.00
2023-02-05T09:43:01.385Z,16.13
2023-02-05T09:45:40.811Z,15.15
2023-02-05T09:48:41.345Z,15.02
2023-02-05T09:54:06.773Z,15.57
2023-02-05T09:56:39.922Z,14.73
2023-02-05T09:59:07.729Z,12.63
2023-02-05T10:10:45.694Z,16.55
2023-02-05T10:13:26.755Z,15.35
2023-02-05T10:19:36.610Z,11.95
2023-02-05T10:22:11.086Z,15.75
2023-02-05T10:24:50.904Z,12.10
2023-02-05T10:27:22.839Z,12.88
2023-02-05T10:30:13.745Z,17.88
2023-02-05T10:33:00.874Z,13.15
2023-02-05T10:35:44.301Z,12.63
2023-02-05T10:38:16.673Z,10.43
2023-02-05T10:40:46.658Z,12.25
2023-02-05T10:43:31.033Z,12.38
2023-02-05T10:45:59.289Z,13.55
2023-02-05T10:48:33.486Z,16.90
2023-02-05T10:51:03.247Z,15.82
2023-02-05T10:53:31.567Z,14.05
2023-02-05T10:56:00.550Z,16.23
2023-02-05T10:58:49.923Z,14.82
2023-02-05T11:01:21.354Z,20.13
2023-02-05T11:04:07.523Z,18.35
2023-02-05T11:06:40.510Z,19.33
2023-02-05T11:09:28.850Z,20.05
2023-02-05T11:11:57.749Z,17.50
2023-02-05T11:14:32.124Z,18.00
2023-02-05T11:17:08.279Z,19.63
2023-02-05T11:19:35.966Z,19.92
2023-02-05T11:22:04.698Z,19.75
2023-02-05T11:24:32.347Z,19.40
2023-02-05T11:27:12.336Z,20.63
2023-02-05T11:29:39.916Z,18.30
2023-02-05T11:32:20.871Z,17.92
2023-02-05T11:34:48.689Z,21.58
2023-02-05T11:37:18.617Z,21.90
2023-02-05T11:39:47.686Z,22.05
2023-02-05T11:42:19.736Z,18.65
2023-02-05T11:44:55.512Z,22.65
2023-02-05T11:47:28.915Z,23.00
2023-02-05T11:49:56.753Z,18.20
2023-02-05T11:52:29.906Z,20.10
2023-02-05T11:54:57.595Z,17.23
2023-02-05T11:57:31.252Z,20.73
2023-02-05T12:00:03.392Z,21.35
2023-02-05T12:02:33.615Z,24.38
2023-02-05T12:05:13.669Z,18.55
2023-02-05T12:07:44.285Z,21.10
2023-02-05T12:10:37.798Z,20.85
2023-02-05T12:13:08.451Z,19.63
2023-02-05T12:15:40.896Z,23.25
2023-02-05T12:18:38.073Z,19.17
2023-02-05T12:21:05.681Z,19.92
2023-02-05T12:23:51.680Z,18.90
2023-02-05T12:26:25.115Z,20.38
2023-02-05T12:28:59.513Z,21.25
2023-02-05T12:31:46.500Z,19.60
2023-02-05T12:34:33.177Z,18.88
2023-02-05T12:37:08.525Z,18.17
2023-02-05T12:39:43.197Z,18.27
2023-02-05T12:42:22.639Z,19.77
2023-02-05T12:44:50.274Z,14.98
2023-02-05T12:47:35.791Z,14.35
2023-02-05T12:50:03.498Z,17.92
2023-02-05T12:52:40.223Z,17.15
2023-02-05T12:55:07.979Z,13.68
2023-02-05T12:57:52.322Z,14.23
2023-02-05T13:00:24.407Z,12.18
2023-02-05T13:02:55.291Z,13.15
2023-02-05T13:05:35.553Z,11.15
2023-02-05T13:08:08.115Z,13.90
2023-02-05T13:10:43.617Z,9.10
2023-02-05T13:13:20.267Z,11.60
2023-02-05T13:15:52.622Z,12.38
2023-02-05T13:18:26.482Z,14.50
2023-02-05T13:21:15.548Z,10.93
2023-02-05T13:24:02.850Z,11.70
2023-02-05T13:26:55.594Z,12.02
2023-02-05T13:29:27.031Z,9.25
2023-02-05T13:32:10.607Z,7.60
2023-02-05T13:34:42.653Z,9.02
2023-02-05T13:37:19.383Z,9.65
2023-02-05T13:39:53.104Z,9.25
2023-02-05T13:42:31.315Z,7.72
2023-02-05T13:45:08.166Z,9.98
2023-02-05T13:47:41.866Z,9.25
2023-02-05T13:50:28.537Z,9.13
2023-02-05T13:53:15.124Z,8.82
2023-02-05T13:56:01.659Z,9.48
2023-02-05T13:58:30.499Z,8.50
2023-02-05T14:01:03.229Z,10.98
2023-02-05T14:03:36.567Z,9.07
2023-02-05T14:06:15.595Z,11.88
2023-02-05T14:08:43.423Z,11.10
2023-02-05T14:11:11.426Z,13.05
2023-02-05T14:13:39.132Z,15.45
2023-02-05T14:16:33.942Z,11.20
2023-02-05T14:19:01.612Z,9.45
2023-02-05T14:21:32.441Z,12.85
2023-02-05T14:24:04.678Z,13.32
2023-02-05T14:27:00.795Z,11.98
2023-02-05T14:29:41.405Z,12.40
2023-02-05T14:32:12.736Z,14.57
2023-02-05T14:34:40.388Z,15.27
2023-02-05T14:37:23.612Z,14.45
2023-02-05T14:39:51.946Z,16.85
2023-02-05T14:42:20.948Z,13.85
2023-02-05T14:44:54.636Z,16.70
2023-02-05T14:47:26.175Z,15.07
2023-02-05T14:50:00.107Z,14.15
2023-02-05T14:52:33.953Z,16.02
2023-02-05T14:55:13.685Z,17.80
2023-02-05T14:57:43.555Z,16.20
2023-02-05T15:00:25.808Z,16.83
2023-02-05T15:03:05.674Z,13.73
2023-02-05T15:05:48.789Z,13.30
2023-02-05T15:08:19.764Z,12.30
2023-02-05T15:11:06.028Z,13.30
2023-02-05T15:13:34.170Z,13.27
2023-02-05T15:16:17.007Z,14.38
2023-02-05T15:18:56.097Z,16.40
2023-02-05T15:21:40.451Z,16.00
2023-02-05T15:24:22.365Z,15.15
2023-02-05T15:26:56.075Z,19.33
2023-02-05T15:29:29.544Z,14.52
2023-02-05T15:31:59.980Z,14.63
2023-02-05T15:34:30.530Z,17.85
2023-02-05T15:37:01.947Z,15.77
2023-02-05T15:39:29.619Z,15.00
2023-02-05T15:41:58.748Z,17.27
2023-02-05T15:44:29.264Z,15.82
2023-02-05T15:46:58.410Z,16.52
2023-02-05T15:49:30.794Z,18.33
2023-02-05T15:51:59.140Z,21.83
2023-02-05T15:54:26.937Z,17.38
2023-02-05T15:56:54.842Z,15.13
2023-02-05T15:59:30.101Z,16.48
2023-02-05T16:02:00.718Z,16.05
2023-02-05T16:04:40.841Z,14.43
2023-02-05T16:07:19.794Z,11.85
2023-02-05T16:09:49.019Z,12.65
2023-02-05T16:12:17.125Z,7.10
2023-02-05T16:14:45.188Z,8.20
2023-02-05T16:17:26.035Z,6.43
2023-02-05T16:20:04.602Z,7.45
2023-02-05T16:22:40.705Z,6.85
2023-02-05T16:25:28.003Z,7.32
2023-02-05T16:27:56.181Z,7.28
2023-02-05T16:30:24.478Z,5.60
2023-02-05T16:32:53.984Z,6.93
2023-02-05T16:35:24.809Z,4.82
2023-02-05T16:37:52.652Z,4.45
2023-02-05T16:40:30.040Z,5.13
2023-02-05T16:42:57.658Z,4.85
2023-02-05T16:45:29.136Z,3.92
2023-02-05T16:48:21.729Z,7.43
2023-02-05T16:50:49.830Z,54.03
2023-02-05T16:53:26.531Z,13.30
2023-02-05T16:56:18.392Z,7.43
2023-02-05T16:58:48.258Z,7.10
2023-02-05T17:01:22.413Z,6.72
2023-02-05T17:03:50.844Z,4.45
2023-02-05T17:06:19.396Z,4.15
2023-02-05T17:08:55.352Z,6.07
2023-02-05T17:11:35.147Z,7.93
2023-02-05T17:14:29.926Z,6.93
2023-02-05T17:17:16.504Z,7.60
2023-02-05T17:19:44.431Z,13.48
2023-02-05T17:22:11.947Z,8.93
2023-02-05T17:24:39.562Z,6.68
2023-02-05T17:27:11.260Z,8.27
2023-02-05T17:29:39.338Z,11.20
2023-02-05T17:32:09.132Z,9.50
2023-02-05T17:34:36.806Z,11.20
2023-02-05T17:37:07.743Z,9.73
2023-02-05T17:39:35.344Z,8.18
2023-02-05T17:42:07.732Z,8.63
2023-02-05T17:44:36.398Z,7.50
2023-02-05T17:47:04.696Z,9.68
2023-02-05T17:49:32.320Z,8.00
2023-02-05T17:52:00.075Z,8.70
2023-02-05T17:54:27.711Z,9.52
2023-02-05T17:56:57.571Z,9.80
2023-02-05T17:59:26.556Z,9.90
2023-02-05T18:01:54.524Z,11.15
2023-02-05T18:04:22.254Z,8.93
2023-02-05T18:06:50.168Z,10.00
2023-02-05T18:09:18.815Z,9.70
2023-02-05T18:11:46.397Z,10.13
2023-02-05T18:14:14.026Z,11.13
2023-02-05T18:16:41.784Z,11.98
2023-02-05T18:19:09.615Z,10.18
2023-02-05T18:21:37.237Z,11.68
2023-02-05T18:24:04.814Z,11.05
2023-02-05T18:26:33.187Z,11.48
2023-02-05T18:29:00.788Z,10.20
2023-02-05T18:31:28.417Z,10.18
2023-02-05T18:33:59.940Z,10.95
2023-02-05T18:36:33.334Z,14.02
2023-02-05T18:39:01.042Z,12.05
2023-02-05T18:41:29.142Z,13.30
2023-02-05T18:44:02.234Z,13.05
2023-02-05T18:49:14.281Z,14.18
2023-02-05T18:51:45.237Z,14.40
2023-02-05T18:54:12.855Z,17.02
2023-02-05T18:56:40.651Z,14.90
2023-02-05T18:59:09.606Z,14.40
2023-02-05T19:01:38.533Z,14.23
2023-02-05T19:04:12.342Z,15.20
2023-02-05T19:06:43.671Z,10.77
2023-02-05T19:09:11.847Z,14.63
2023-02-05T19:11:41.472Z,17.75
2023-02-05T19:14:11.268Z,14.93
2023-02-05T19:16:39.363Z,14.40
2023-02-05T19:19:07.462Z,14.20
2023-02-05T19:21:36.173Z,15.00
2023-02-05T19:24:09.751Z,12.85
2023-02-05T19:26:38.685Z,12.65
2023-02-05T19:29:08.481Z,12.38
2023-02-05T19:31:36.988Z,12.38
2023-02-05T19:34:04.917Z,12.27
2023-02-05T19:36:32.600Z,12.07
2023-02-05T19:39:01.169Z,13.13
2023-02-05T19:41:29.118Z,12.05
2023-02-05T19:43:58.420Z,12.75
2023-02-05T19:46:27.711Z,11.48
2023-02-05T19:48:56.339Z,11.55
2023-02-05T19:51:23.965Z,11.35
2023-02-05T19:53:56.418Z,11.32
2023-02-05T19:56:24.444Z,12.63
2023-02-05T19:58:53.390Z,9.60
2023-02-05T20:01:24.561Z,9.02
2023-02-05T20:03:53.835Z,12.32
2023-02-05T20:06:22.403Z,10.05
2023-02-05T20:08:50.219Z,8.43
2023-02-05T20:11:18.118Z,8.43
2023-02-05T20:13:45.960Z,8.63
2023-02-05T20:16:18.970Z,9.40
2023-02-05T20:18:47.209Z,9.25
2023-02-05T20:21:17.053Z,9.45
2023-02-05T20:23:44.818Z,7.22
2023-02-05T20:26:14.443Z,7.75
2023-02-05T20:29:01.561Z,8.88
2023-02-05T20:31:41.281Z,6.78
2023-02-05T20:34:10.576Z,8.07
2023-02-05T20:36:38.949Z,8.13
2023-02-05T20:39:08.293Z,10.35
2023-02-05T20:41:36.002Z,8.95
2023-02-05T20:44:03.906Z,7.90
2023-02-05T20:46:32.015Z,9.38
2023-02-05T20:49:00.501Z,8.30
2023-02-05T20:51:28.605Z,9.60
2023-02-05T20:54:00.064Z,10.82
2023-02-05T20:56:29.432Z,9.57
2023-02-05T20:59:00.797Z,10.10
2023-02-05T21:01:29.524Z,9.68
2023-02-05T21:03:58.291Z,9.80
2023-02-05T21:06:27.000Z,9.63
2023-02-05T21:08:55.550Z,9.13
2023-02-05T21:11:23.836Z,9.35
2023-02-05T21:13:52.057Z,8.85
2023-02-05T21:16:21.141Z,9.25
2023-02-05T21:18:49.409Z,9.32
2023-02-05T21:21:19.181Z,11.18
2023-02-05T21:23:47.273Z,10.50
2023-02-05T21:26:24.254Z,14.40
2023-02-05T21:28:56.342Z,10.77
2023-02-05T21:31:25.254Z,11.43
2023-02-05T21:33:53.422Z,12.00
2023-02-05T21:36:22.126Z,10.90
2023-02-05T21:38:49.814Z,11.18
2023-02-05T21:41:18.943Z,12.52
2023-02-05T21:43:50.584Z,11.60
2023-02-05T21:46:22.116Z,12.07
2023-02-05T21:48:50.895Z,12.95
2023-02-05T21:51:19.748Z,12.38
2023-02-05T21:53:47.438Z,12.45
2023-02-05T21:56:16.755Z,13.95
2023-02-05T21:58:44.438Z,14.20
2023-02-05T22:01:15.237Z,14.15
2023-02-05T22:03:43.974Z,13.13
2023-02-05T22:06:11.541Z,14.30
2023-02-05T22:08:40.285Z,14.85
2023-02-05T22:11:09.982Z,14.85
2023-02-05T22:13:42.712Z,15.00
2023-02-05T22:16:30.682Z,16.10
2023-02-05T22:18:58.901Z,15.20
2023-02-05T22:21:30.920Z,16.38
2023-02-05T22:24:01.976Z,16.38
2023-02-05T22:26:35.536Z,18.15
2023-02-05T22:29:04.612Z,18.25
2023-02-05T22:31:32.751Z,18.70
2023-02-05T22:34:08.531Z,20.67
2023-02-05T22:36:36.792Z,17.45
2023-02-05T22:39:05.225Z,17.38
2023-02-05T22:41:37.531Z,16.70
2023-02-05T22:44:08.699Z,16.33
2023-02-05T22:49:06.557Z,15.63
2023-02-05T22:51:40.410Z,17.17
2023-02-05T22:54:09.111Z,16.88
2023-02-05T22:56:37.753Z,16.55
2023-02-05T22:59:06.380Z,16.98
2023-02-05T23:01:35.615Z,17.13
2023-02-05T23:04:04.883Z,16.63
2023-02-05T23:06:33.985Z,16.05
2023-02-05T23:09:04.263Z,15.82
2023-02-05T23:11:32.597Z,15.20
2023-02-05T23:14:00.820Z,15.70
2023-02-05T23:16:29.895Z,14.38
2023-02-05T23:18:58.684Z,16.23
2023-02-05T23:21:31.499Z,15.05
2023-02-05T23:23:59.112Z,15.88
2023-02-05T23:26:28.561Z,16.50
2023-02-05T23:28:57.535Z,17.40
2023-02-05T23:31:26.082Z,16.95
2023-02-05T23:33:57.320Z,17.27
2023-02-05T23:38:52.287Z,17.70
2023-02-05T23:41:40.379Z,18.92
2023-02-05T23:44:15.764Z,21.23
2023-02-05T23:46:43.823Z,18.65
2023-02-05T23:49:11.797Z,19.13
2023-02-05T23:51:39.649Z,18.63
2023-02-05T23:54:07.897Z,18.92
2023-02-05T23:56:35.687Z,20.25
2023-02-05T23:59:03.403Z,20.85
